Time;durP1;ratioP1;P1;durP2;ratioP2;P2;SDS_P1;SDS_P2;PMS_P1;PMS_P2;Temp;Humidity;BMP_temperature;BMP_pressure;BME280_temperature;BME280_humidity;BME280_pressure;Samples;Min_cycle;Max_cycle;Signal;HPM_P1;HPM_P2
2022/03/11 00:00:43;;;;;;;69.30;33.43;;;;;;;;;;5073913;27;20420;-36
2022/03/11 00:03:10;;;;;;;65.83;34.20;;;;;;;;;;5072928;27;22713;-36
2022/03/11 00:05:37;;;;;;;68.07;33.90;;;;;;;;;;5071115;27;20416;-35
2022/03/11 00:08:03;;;;;;;67.83;33.37;;;;;;;;;;5074907;27;20428;-36
2022/03/11 00:10:29;;;;;;;66.83;33.73;;;;;;;;;;5077092;27;20705;-36
2022/03/11 00:12:56;;;;;;;68.57;35.43;;;;;;;;;;5078879;28;21240;-36
2022/03/11 00:15:22;;;;;;;72.33;34.60;;;;;;;;;;5072909;27;20447;-36
2022/03/11 00:17:48;;;;;;;65.60;33.53;;;;;;;;;;5073088;27;20443;-36
2022/03/11 00:20:19;;;;;;;75.37;35.20;;;;;;;;;;5072321;27;20698;-36
2022/03/11 00:22:46;;;;;;;67.53;33.53;;;;;;;;;;5074192;27;20495;-36
2022/03/11 00:25:12;;;;;;;75.80;37.53;;;;;;;;;;5070198;27;20505;-36
2022/03/11 00:27:38;;;;;;;73.57;36.37;;;;;;;;;;5047752;28;20708;-36
2022/03/11 00:30:06;;;;;;;73.13;35.87;;;;;;;;;;5073297;27;20675;-35
2022/03/11 00:32:32;;;;;;;69.17;37.23;;;;;;;;;;5055160;28;20431;-36
2022/03/11 00:34:58;;;;;;;85.47;41.90;;;;;;;;;;5076156;27;20505;-36
2022/03/11 00:37:24;;;;;;;85.40;41.40;;;;;;;;;;5064030;27;20963;-36
2022/03/11 00:39:51;;;;;;;84.47;40.30;;;;;;;;;;5071090;27;21036;-36
2022/03/11 00:42:17;;;;;;;85.97;40.07;;;;;;;;;;5074341;27;21147;-36
2022/03/11 00:44:43;;;;;;;81.40;41.03;;;;;;;;;;5071655;27;20779;-36
2022/03/11 00:47:09;;;;;;;92.50;41.70;;;;;;;;;;5069131;27;20936;-35
2022/03/11 00:49:36;;;;;;;94.67;43.13;;;;;;;;;;5069038;27;20416;-36
2022/03/11 00:52:02;;;;;;;88.97;43.17;;;;;;;;;;5071243;27;21215;-36
2022/03/11 00:54:29;;;;;;;90.57;44.97;;;;;;;;;;5070672;27;21235;-36
2022/03/11 00:56:55;;;;;;;95.57;44.70;;;;;;;;;;5070833;27;20424;-36
2022/03/11 00:59:21;;;;;;;92.30;45.03;;;;;;;;;;5066821;27;20534;-36
2022/03/11 01:01:47;;;;;;;94.43;46.53;;;;;;;;;;5067694;27;20916;-36
2022/03/11 01:04:13;;;;;;;98.47;46.87;;;;;;;;;;5068713;27;20578;-36
2022/03/11 01:06:40;;;;;;;97.60;46.93;;;;;;;;;;5067432;28;21235;-36
2022/03/11 01:09:06;;;;;;;97.70;47.57;;;;;;;;;;5069639;27;20918;-36
2022/03/11 01:11:32;;;;;;;105.27;50.20;;;;;;;;;;5068680;28;20961;-36
2022/03/11 01:13:59;;;;;;;109.07;53.63;;;;;;;;;;5071946;27;20426;-36
2022/03/11 01:16:25;;;;;;;112.67;55.43;;;;;;;;;;5073773;27;21044;-36
2022/03/11 01:18:51;;;;;;;119.00;56.97;;;;;;;;;;5070423;27;20445;-36
2022/03/11 01:21:18;;;;;;;121.10;59.33;;;;;;;;;;5071125;27;20805;-36
2022/03/11 01:23:44;;;;;;;126.77;61.10;;;;;;;;;;5066314;27;20557;-36
2022/03/11 01:26:11;;;;;;;124.10;61.63;;;;;;;;;;5072095;27;20423;-35
2022/03/11 01:28:41;;;;;;;135.03;65.57;;;;;;;;;;5074030;27;20415;-36
2022/03/11 01:31:07;;;;;;;142.60;66.93;;;;;;;;;;5070857;27;21194;-36
2022/03/11 01:33:33;;;;;;;143.07;68.80;;;;;;;;;;5072210;27;20442;-36
2022/03/11 01:35:59;;;;;;;145.27;72.47;;;;;;;;;;5071584;27;20931;-36
2022/03/11 01:38:25;;;;;;;146.40;71.60;;;;;;;;;;5070862;27;20938;-35
2022/03/11 01:40:51;;;;;;;150.60;73.83;;;;;;;;;;5071787;28;20854;-36
2022/03/11 01:43:18;;;;;;;145.07;71.10;;;;;;;;;;5067057;27;20563;-36
2022/03/11 01:45:45;;;;;;;156.70;75.57;;;;;;;;;;5073174;27;20450;-36
2022/03/11 01:48:11;;;;;;;146.93;71.73;;;;;;;;;;5074820;27;20451;-36
2022/03/11 01:50:41;;;;;;;150.73;70.47;;;;;;;;;;5068799;28;20431;-36
2022/03/11 01:53:08;;;;;;;151.23;69.30;;;;;;;;;;5070214;27;21009;-36
2022/03/11 01:55:34;;;;;;;138.87;66.47;;;;;;;;;;5069995;27;20428;-36
2022/03/11 01:58:00;;;;;;;147.93;70.73;;;;;;;;;;5073809;27;20767;-36
2022/03/11 02:00:26;;;;;;;134.40;63.00;;;;;;;;;;5069042;28;20431;-36
2022/03/11 02:02:52;;;;;;;138.27;66.00;;;;;;;;;;5071916;28;21071;-36
2022/03/11 02:05:18;;;;;;;130.30;60.90;;;;;;;;;;5074016;27;20759;-36
2022/03/11 02:07:44;;;;;;;143.93;65.53;;;;;;;;;;5076326;28;21187;-36
2022/03/11 02:10:10;;;;;;;134.53;62.60;;;;;;;;;;5069741;27;20423;-36
2022/03/11 02:12:37;;;;;;;125.70;60.47;;;;;;;;;;5070764;28;20415;-36
2022/03/11 02:15:07;;;;;;;123.77;58.47;;;;;;;;;;5070053;27;20973;-36
2022/03/11 02:17:33;;;;;;;136.30;60.33;;;;;;;;;;5071710;28;20745;-36
2022/03/11 02:19:59;;;;;;;118.80;56.17;;;;;;;;;;5072479;28;20729;-38
2022/03/11 02:22:26;;;;;;;117.23;56.33;;;;;;;;;;5069781;28;21935;-36
2022/03/11 02:24:53;;;;;;;120.83;57.70;;;;;;;;;;5068360;28;20419;-36
2022/03/11 02:27:19;;;;;;;132.90;59.67;;;;;;;;;;5065755;28;20496;-36
2022/03/11 02:29:46;;;;;;;129.93;60.23;;;;;;;;;;5073687;28;20415;-35
2022/03/11 02:32:12;;;;;;;125.57;58.40;;;;;;;;;;5073162;28;20415;-36
2022/03/11 02:34:38;;;;;;;126.40;58.70;;;;;;;;;;5069521;28;20539;-36
2022/03/11 02:37:05;;;;;;;117.63;57.90;;;;;;;;;;5069852;28;21037;-36
2022/03/11 02:39:31;;;;;;;122.17;57.83;;;;;;;;;;5070439;28;20416;-35
2022/03/11 02:42:00;;;;;;;118.00;56.30;;;;;;;;;;5072881;28;20428;-36
2022/03/11 02:44:29;;;;;;;117.10;57.37;;;;;;;;;;5071145;28;20448;-36
2022/03/11 02:46:55;;;;;;;108.67;54.93;;;;;;;;;;5072945;27;20407;-36
2022/03/11 02:49:22;;;;;;;119.23;55.60;;;;;;;;;;5071264;27;20727;-36
2022/03/11 02:51:48;;;;;;;119.57;56.47;;;;;;;;;;5076615;27;20420;-36
2022/03/11 02:54:14;;;;;;;116.43;56.63;;;;;;;;;;5077940;27;20462;-36
2022/03/11 02:56:40;;;;;;;114.90;55.80;;;;;;;;;;5073491;27;20420;-36
2022/03/11 02:59:06;;;;;;;117.03;56.60;;;;;;;;;;5073307;27;20439;-36
2022/03/11 03:01:32;;;;;;;132.83;60.83;;;;;;;;;;5072897;27;21163;-36
2022/03/11 03:03:58;;;;;;;141.10;63.37;;;;;;;;;;5073605;27;21313;-36
2022/03/11 03:06:24;;;;;;;127.90;59.30;;;;;;;;;;5078566;27;21657;-36
2022/03/11 03:08:50;;;;;;;122.90;56.83;;;;;;;;;;5079327;27;20416;-36
2022/03/11 03:11:16;;;;;;;142.73;64.60;;;;;;;;;;5076219;27;20901;-36
2022/03/11 03:13:42;;;;;;;132.70;63.13;;;;;;;;;;5076996;27;20427;-36
2022/03/11 03:16:08;;;;;;;148.83;66.90;;;;;;;;;;5074581;27;20423;-36
2022/03/11 03:18:34;;;;;;;138.47;65.00;;;;;;;;;;5076643;27;20500;-36
2022/03/11 03:21:01;;;;;;;125.93;62.07;;;;;;;;;;5074674;27;20427;-36
2022/03/11 03:23:27;;;;;;;124.37;59.63;;;;;;;;;;5071985;27;20865;-36
2022/03/11 03:25:54;;;;;;;119.37;60.20;;;;;;;;;;5075293;27;20744;-37
2022/03/11 03:28:20;;;;;;;135.00;59.93;;;;;;;;;;5075317;27;20464;-36
2022/03/11 03:30:46;;;;;;;118.83;59.73;;;;;;;;;;5071548;27;21054;-36
2022/03/11 03:33:12;;;;;;;126.77;61.53;;;;;;;;;;5066475;27;20431;-36
2022/03/11 03:35:38;;;;;;;127.17;59.50;;;;;;;;;;5052855;28;21139;-36
2022/03/11 03:38:05;;;;;;;132.30;61.63;;;;;;;;;;5079629;28;20415;-36
2022/03/11 03:40:31;;;;;;;140.87;65.40;;;;;;;;;;5075634;27;20438;-36
2022/03/11 03:42:57;;;;;;;127.53;62.73;;;;;;;;;;5074245;27;20487;-36
2022/03/11 03:45:23;;;;;;;127.87;61.07;;;;;;;;;;5071486;27;21177;-36
2022/03/11 03:47:49;;;;;;;129.97;60.87;;;;;;;;;;5075369;27;21120;-36
2022/03/11 03:50:15;;;;;;;133.73;61.40;;;;;;;;;;5053004;28;20484;-36
2022/03/11 03:52:42;;;;;;;144.53;67.37;;;;;;;;;;5073252;28;20878;-36
2022/03/11 03:55:08;;;;;;;138.67;65.07;;;;;;;;;;5072768;27;20672;-36
2022/03/11 03:57:34;;;;;;;128.60;62.70;;;;;;;;;;5076374;27;20517;-36
2022/03/11 04:00:00;;;;;;;127.20;63.10;;;;;;;;;;5076997;27;20570;-36
2022/03/11 04:02:26;;;;;;;133.83;61.63;;;;;;;;;;5071249;27;20600;-36
2022/03/11 04:04:53;;;;;;;159.37;70.17;;;;;;;;;;5069041;27;20454;-36
2022/03/11 04:07:19;;;;;;;151.93;70.00;;;;;;;;;;5074856;27;20419;-36
2022/03/11 04:09:45;;;;;;;144.77;67.37;;;;;;;;;;5078193;27;20744;-36
2022/03/11 04:12:11;;;;;;;162.83;71.70;;;;;;;;;;5070892;27;20542;-36
2022/03/11 04:14:37;;;;;;;140.37;65.97;;;;;;;;;;5071523;27;20415;-36
2022/03/11 04:17:03;;;;;;;154.63;69.07;;;;;;;;;;5071534;27;20956;-36
2022/03/11 04:19:29;;;;;;;151.40;67.83;;;;;;;;;;5073510;27;21013;-36
2022/03/11 04:21:55;;;;;;;141.53;65.23;;;;;;;;;;5071473;27;20519;-36
2022/03/11 04:24:23;;;;;;;140.10;62.30;;;;;;;;;;5071634;27;20566;-36
2022/03/11 04:26:49;;;;;;;139.23;65.40;;;;;;;;;;5072840;27;20960;-36
2022/03/11 04:29:15;;;;;;;141.40;63.90;;;;;;;;;;5075596;28;20420;-36
2022/03/11 04:31:41;;;;;;;150.03;66.20;;;;;;;;;;5070030;27;20496;-36
2022/03/11 04:34:07;;;;;;;137.53;63.00;;;;;;;;;;5071249;27;20630;-36
2022/03/11 04:36:38;;;;;;;135.00;65.07;;;;;;;;;;5073300;27;20744;-36
2022/03/11 04:39:04;;;;;;;147.43;69.23;;;;;;;;;;5075726;27;20424;-36
2022/03/11 04:41:30;;;;;;;150.50;67.87;;;;;;;;;;5069414;27;21287;-36
2022/03/11 04:43:56;;;;;;;152.43;68.17;;;;;;;;;;5070469;27;20459;-36
2022/03/11 04:46:22;;;;;;;155.70;69.03;;;;;;;;;;5074707;27;20641;-36
2022/03/11 04:48:49;;;;;;;147.60;66.10;;;;;;;;;;5075833;27;20741;-36
2022/03/11 04:51:15;;;;;;;154.40;68.00;;;;;;;;;;5070596;27;20646;-36
2022/03/11 04:53:41;;;;;;;145.17;66.30;;;;;;;;;;5069188;27;20427;-36
2022/03/11 04:56:08;;;;;;;161.10;70.03;;;;;;;;;;5076916;27;20446;-36
2022/03/11 04:58:34;;;;;;;158.67;69.93;;;;;;;;;;5073413;27;20873;-36
2022/03/11 05:01:00;;;;;;;162.87;70.63;;;;;;;;;;5067895;27;20467;-36
2022/03/11 05:03:26;;;;;;;141.50;64.40;;;;;;;;;;5065499;28;20814;-36
2022/03/11 05:05:53;;;;;;;168.80;72.23;;;;;;;;;;5069952;27;20938;-36
2022/03/11 05:08:19;;;;;;;180.57;77.07;;;;;;;;;;5073129;27;20451;-36
2022/03/11 05:10:45;;;;;;;169.03;73.13;;;;;;;;;;5068545;27;20789;-36
2022/03/11 05:13:11;;;;;;;152.87;71.20;;;;;;;;;;5066733;27;20966;-36
2022/03/11 05:15:38;;;;;;;167.30;72.83;;;;;;;;;;5070099;27;20863;-36
2022/03/11 05:18:05;;;;;;;156.70;69.43;;;;;;;;;;5071542;27;20427;-36
2022/03/11 05:20:31;;;;;;;152.10;71.37;;;;;;;;;;5071593;27;20457;-36
2022/03/11 05:22:57;;;;;;;156.37;70.37;;;;;;;;;;5072708;28;20452;-36
2022/03/11 05:25:23;;;;;;;169.20;72.90;;;;;;;;;;5070061;27;20420;-37
2022/03/11 05:27:49;;;;;;;152.47;69.50;;;;;;;;;;5072278;28;20415;-36
2022/03/11 05:30:15;;;;;;;158.50;68.33;;;;;;;;;;5072797;27;20540;-35
2022/03/11 05:32:43;;;;;;;152.07;69.33;;;;;;;;;;5066459;27;20416;-36
2022/03/11 05:35:09;;;;;;;173.43;71.20;;;;;;;;;;5066604;27;21042;-36
2022/03/11 05:37:35;;;;;;;171.57;72.53;;;;;;;;;;5068612;27;20810;-36
2022/03/11 05:40:01;;;;;;;166.73;71.57;;;;;;;;;;5069232;28;20827;-36
2022/03/11 05:42:27;;;;;;;167.97;70.40;;;;;;;;;;5073661;27;20661;-36
2022/03/11 05:44:53;;;;;;;153.23;68.47;;;;;;;;;;5064002;27;20455;-36
2022/03/11 05:47:19;;;;;;;171.43;72.40;;;;;;;;;;5067585;28;20816;-37
2022/03/11 05:49:46;;;;;;;152.40;69.10;;;;;;;;;;5067106;28;20423;-37
2022/03/11 05:52:12;;;;;;;170.93;72.77;;;;;;;;;;5071535;28;20538;-36
2022/03/11 05:54:38;;;;;;;165.43;70.13;;;;;;;;;;5069417;27;20430;-36
2022/03/11 05:57:04;;;;;;;172.77;74.50;;;;;;;;;;5068505;27;20849;-36
2022/03/11 05:59:31;;;;;;;168.93;72.30;;;;;;;;;;5068345;27;20882;-36
2022/03/11 06:01:58;;;;;;;174.33;73.47;;;;;;;;;;5069798;28;20518;-36
2022/03/11 06:04:24;;;;;;;148.30;66.93;;;;;;;;;;5066429;27;20452;-36
2022/03/11 06:06:50;;;;;;;162.87;72.10;;;;;;;;;;5065642;27;20459;-36
2022/03/11 06:09:16;;;;;;;160.03;69.13;;;;;;;;;;5065989;28;20427;-36
2022/03/11 06:11:42;;;;;;;155.90;70.70;;;;;;;;;;5070030;28;20950;-36
2022/03/11 06:14:08;;;;;;;157.00;67.43;;;;;;;;;;5070458;28;20519;-36
2022/03/11 06:16:35;;;;;;;159.87;67.07;;;;;;;;;;5067440;28;20424;-36
2022/03/11 06:19:01;;;;;;;147.63;64.90;;;;;;;;;;5048685;27;20461;-36
2022/03/11 06:21:27;;;;;;;139.77;61.70;;;;;;;;;;5063665;28;20848;-36
2022/03/11 06:23:53;;;;;;;139.57;63.40;;;;;;;;;;5062424;28;21114;-36
2022/03/11 06:26:19;;;;;;;128.43;58.63;;;;;;;;;;5067338;28;21327;-36
2022/03/11 06:28:45;;;;;;;130.10;56.87;;;;;;;;;;5065951;28;21347;-36
2022/03/11 06:31:12;;;;;;;123.33;55.97;;;;;;;;;;5062050;28;20492;-36
2022/03/11 06:33:38;;;;;;;121.17;55.07;;;;;;;;;;5076074;28;20509;-37
2022/03/11 06:36:05;;;;;;;124.83;54.53;;;;;;;;;;5059523;28;20755;-36
2022/03/11 06:38:31;;;;;;;117.23;51.60;;;;;;;;;;5070840;28;20820;-38
2022/03/11 06:40:57;;;;;;;115.17;52.30;;;;;;;;;;5069232;28;20755;-36
2022/03/11 06:43:23;;;;;;;124.87;54.87;;;;;;;;;;5072987;28;21342;-36
2022/03/11 06:45:50;;;;;;;121.93;55.63;;;;;;;;;;5070020;28;20802;-36
2022/03/11 06:48:21;;;;;;;119.17;53.57;;;;;;;;;;5045148;28;20735;-36
2022/03/11 06:50:47;;;;;;;119.73;52.50;;;;;;;;;;5067717;28;20417;-36
2022/03/11 06:53:13;;;;;;;114.83;53.07;;;;;;;;;;5071876;28;20450;-36
2022/03/11 06:55:39;;;;;;;114.53;53.07;;;;;;;;;;5069124;28;20448;-37
2022/03/11 06:58:06;;;;;;;118.47;55.83;;;;;;;;;;5067303;28;20455;-36
2022/03/11 07:00:32;;;;;;;116.67;54.03;;;;;;;;;;5075088;28;20412;-38
2022/03/11 07:03:02;;;;;;;116.67;55.47;;;;;;;;;;5072020;28;20416;-36
2022/03/11 07:05:28;;;;;;;118.63;54.17;;;;;;;;;;5064983;28;20764;-37
2022/03/11 07:07:54;;;;;;;130.30;56.77;;;;;;;;;;5068220;28;20977;-36
2022/03/11 07:10:21;;;;;;;123.77;55.40;;;;;;;;;;5069203;28;20408;-36
2022/03/11 07:12:47;;;;;;;119.27;55.40;;;;;;;;;;5072405;28;20420;-36
2022/03/11 07:15:13;;;;;;;117.93;54.73;;;;;;;;;;5073251;28;20408;-37
2022/03/11 07:17:39;;;;;;;111.70;53.97;;;;;;;;;;5075228;28;20439;-36
2022/03/11 07:20:06;;;;;;;110.83;52.53;;;;;;;;;;5072013;28;20835;-37
2022/03/11 07:22:32;;;;;;;123.13;57.20;;;;;;;;;;5052775;28;20408;-37
2022/03/11 07:24:59;;;;;;;119.57;54.27;;;;;;;;;;5049047;28;20535;-36
2022/03/11 07:27:26;;;;;;;127.90;58.53;;;;;;;;;;5072027;28;20421;-36
2022/03/11 07:29:53;;;;;;;122.50;56.50;;;;;;;;;;5067844;28;20404;-36
2022/03/11 07:32:19;;;;;;;128.93;58.80;;;;;;;;;;5070625;28;20978;-36
2022/03/11 07:34:45;;;;;;;136.37;57.70;;;;;;;;;;5072639;27;21208;-37
2022/03/11 07:37:12;;;;;;;125.13;57.67;;;;;;;;;;5075228;27;20464;-36
2022/03/11 07:39:41;;;;;;;107.83;51.97;;;;;;;;;;5073459;27;21161;-37
2022/03/11 07:42:08;;;;;;;120.73;57.37;;;;;;;;;;5085242;27;20876;-36
2022/03/11 07:44:34;;;;;;;114.23;55.27;;;;;;;;;;5086292;27;20478;-36
2022/03/11 07:47:01;;;;;;;122.30;56.83;;;;;;;;;;5086143;27;20772;-36
2022/03/11 07:49:30;;;;;;;115.63;56.73;;;;;;;;;;5088133;27;20400;-36
2022/03/11 07:51:56;;;;;;;110.10;53.60;;;;;;;;;;5086037;27;20439;-36
2022/03/11 07:54:23;;;;;;;106.77;54.13;;;;;;;;;;5063219;27;20442;-36
2022/03/11 07:56:49;;;;;;;106.57;52.53;;;;;;;;;;5086564;27;20410;-37
2022/03/11 07:59:16;;;;;;;108.60;51.90;;;;;;;;;;5083443;27;20743;-36
2022/03/11 08:01:42;;;;;;;106.37;51.23;;;;;;;;;;5058490;27;20721;-37
2022/03/11 08:04:13;;;;;;;100.20;50.20;;;;;;;;;;5072192;27;21130;-37
2022/03/11 08:09:48;;;;;;;104.60;50.87;;;;;;;;;;5075340;27;20417;-37
2022/03/11 08:12:21;;;;;;;95.70;48.27;;;;;;;;;;5081763;27;20727;-36
2022/03/11 08:14:47;;;;;;;88.07;46.70;;;;;;;;;;5057315;28;20847;-37
2022/03/11 08:17:19;;;;;;;101.33;47.90;;;;;;;;;;5093306;27;20412;-37
2022/03/11 08:19:46;;;;;;;92.03;46.97;;;;;;;;;;5060853;27;20428;-37
2022/03/11 08:22:27;;;;;;;84.73;45.57;;;;;;;;;;5079787;27;20412;-37
2022/03/11 08:24:56;;;;;;;89.33;44.20;;;;;;;;;;5053217;28;20534;-38
2022/03/11 08:27:25;;;;;;;86.07;44.03;;;;;;;;;;5073384;27;20769;-38
2022/03/11 08:29:57;;;;;;;82.03;44.20;;;;;;;;;;5078552;27;20914;-38
2022/03/11 08:32:26;;;;;;;69.30;38.93;;;;;;;;;;5075124;27;20848;-38
2022/03/11 08:34:55;;;;;;;79.30;40.43;;;;;;;;;;5095813;27;20420;-38
2022/03/11 08:37:21;;;;;;;73.67;39.77;;;;;;;;;;5064061;27;20525;-38
2022/03/11 08:39:47;;;;;;;50.97;29.10;;;;;;;;;;5066660;28;20507;-38
2022/03/11 08:42:14;;;;;;;44.60;26.47;;;;;;;;;;5066173;28;20420;-38
2022/03/11 08:44:40;;;;;;;44.00;25.90;;;;;;;;;;5082415;27;20439;-38
2022/03/11 08:47:07;;;;;;;46.40;25.77;;;;;;;;;;5075856;27;20676;-38
2022/03/11 08:49:36;;;;;;;41.03;23.93;;;;;;;;;;5083651;27;20493;-38
2022/03/11 08:52:06;;;;;;;44.93;25.37;;;;;;;;;;5062248;28;20423;-38
2022/03/11 08:54:32;;;;;;;44.43;26.47;;;;;;;;;;5081083;28;20633;-38
2022/03/11 08:56:59;;;;;;;47.13;26.73;;;;;;;;;;5078099;27;20415;-38
2022/03/11 08:59:25;;;;;;;43.43;24.37;;;;;;;;;;5082126;28;20424;-36
2022/03/11 09:01:52;;;;;;;45.13;25.77;;;;;;;;;;5073401;27;20851;-36
2022/03/11 09:04:21;;;;;;;45.40;25.63;;;;;;;;;;5078850;27;20942;-38
2022/03/11 09:06:48;;;;;;;45.03;26.10;;;;;;;;;;5082253;28;20879;-37
2022/03/11 09:09:14;;;;;;;44.93;24.90;;;;;;;;;;5058829;27;20459;-42
2022/03/11 09:11:41;;;;;;;40.40;23.87;;;;;;;;;;5083219;28;20835;-36
2022/03/11 09:14:07;;;;;;;38.33;21.47;;;;;;;;;;5074858;27;20693;-37
2022/03/11 09:16:34;;;;;;;35.70;20.97;;;;;;;;;;5075660;27;20831;-37
2022/03/11 09:19:01;;;;;;;38.07;21.10;;;;;;;;;;5077625;27;20279;-37
2022/03/11 09:21:28;;;;;;;38.07;20.83;;;;;;;;;;5080922;28;20167;-37
2022/03/11 09:23:55;;;;;;;35.83;21.07;;;;;;;;;;5082827;27;21073;-37
2022/03/11 09:26:21;;;;;;;38.70;22.57;;;;;;;;;;5050412;27;20307;-37
2022/03/11 09:28:47;;;;;;;40.37;21.23;;;;;;;;;;5075654;28;20700;-37
2022/03/11 09:31:14;;;;;;;36.07;20.33;;;;;;;;;;5068586;27;20431;-37
2022/03/11 09:33:40;;;;;;;31.90;20.17;;;;;;;;;;5069282;28;20540;-37
2022/03/11 09:36:07;;;;;;;43.17;20.03;;;;;;;;;;5071060;28;20634;-37
2022/03/11 09:38:33;;;;;;;39.90;20.90;;;;;;;;;;5071164;28;20632;-37
2022/03/11 09:41:01;;;;;;;33.40;19.70;;;;;;;;;;5068679;28;20170;-37
2022/03/11 09:43:27;;;;;;;31.93;18.93;;;;;;;;;;5067557;27;20726;-37
2022/03/11 09:45:54;;;;;;;34.57;20.00;;;;;;;;;;5072099;27;20788;-37
2022/03/11 09:48:20;;;;;;;33.20;19.83;;;;;;;;;;5070936;27;20670;-37
2022/03/11 09:50:46;;;;;;;33.50;19.50;;;;;;;;;;5069074;28;20237;-37
2022/03/11 09:53:13;;;;;;;31.87;18.30;;;;;;;;;;5068045;28;20704;-37
2022/03/11 09:55:39;;;;;;;31.87;18.17;;;;;;;;;;5070373;27;20178;-37
2022/03/11 09:58:05;;;;;;;33.23;19.47;;;;;;;;;;5073341;27;20174;-37
2022/03/11 10:00:31;;;;;;;26.57;17.87;;;;;;;;;;5069652;28;20201;-37
2022/03/11 10:02:58;;;;;;;30.57;16.93;;;;;;;;;;5068100;27;20181;-37
2022/03/11 10:05:24;;;;;;;25.43;17.00;;;;;;;;;;5069590;28;20173;-37
2022/03/11 10:08:08;;;;;;;27.27;16.97;;;;;;;;;;5071243;27;20191;-38
2022/03/11 10:10:35;;;;;;;25.87;15.87;;;;;;;;;;5073837;28;20249;-37
2022/03/11 10:13:01;;;;;;;23.33;15.13;;;;;;;;;;5070425;27;20162;-37
2022/03/11 10:15:29;;;;;;;23.90;14.63;;;;;;;;;;5068291;27;20177;-37
2022/03/11 10:17:55;;;;;;;22.00;12.40;;;;;;;;;;5071256;28;20238;-37
2022/03/11 10:20:21;;;;;;;19.50;11.70;;;;;;;;;;5072069;28;20293;-37
2022/03/11 10:22:48;;;;;;;19.90;12.07;;;;;;;;;;5074984;28;20519;-37
2022/03/11 10:25:16;;;;;;;19.53;11.43;;;;;;;;;;5045361;28;20599;-37
2022/03/11 10:28:01;;;;;;;17.93;11.23;;;;;;;;;;5069048;28;20175;-37
2022/03/11 10:30:28;;;;;;;19.60;11.33;;;;;;;;;;5071910;28;20576;-38
2022/03/11 10:32:58;;;;;;;19.10;12.27;;;;;;;;;;5072152;28;20182;-37
2022/03/11 10:35:36;;;;;;;20.10;11.63;;;;;;;;;;5068992;28;21062;-37
2022/03/11 10:38:07;;;;;;;20.07;12.40;;;;;;;;;;5067060;28;20192;-37
2022/03/11 10:40:34;;;;;;;19.30;12.90;;;;;;;;;;5072721;28;20282;-37
2022/03/11 10:43:10;;;;;;;25.73;12.50;;;;;;;;;;5070486;28;20654;-37
2022/03/11 10:45:49;;;;;;;16.13;11.13;;;;;;;;;;5070146;28;20176;-37
2022/03/11 10:48:15;;;;;;;17.20;12.20;;;;;;;;;;5066350;28;20501;-37
2022/03/11 10:50:42;;;;;;;19.60;12.00;;;;;;;;;;5069394;28;20170;-37
2022/03/11 10:53:09;;;;;;;18.97;11.53;;;;;;;;;;5072645;28;20289;-37
2022/03/11 10:55:38;;;;;;;17.00;11.03;;;;;;;;;;5068081;28;20170;-37
2022/03/11 10:58:05;;;;;;;15.87;11.57;;;;;;;;;;5071111;28;20932;-38
2022/03/11 11:00:32;;;;;;;17.50;11.67;;;;;;;;;;5072254;28;20944;-38
2022/03/11 11:03:00;;;;;;;15.13;11.83;;;;;;;;;;5055191;28;20205;-37
2022/03/11 11:05:27;;;;;;;19.43;12.23;;;;;;;;;;5076402;28;20178;-38
2022/03/11 11:07:53;;;;;;;19.40;12.00;;;;;;;;;;5081146;27;20181;-37
2022/03/11 11:10:20;;;;;;;20.57;11.50;;;;;;;;;;5074538;27;20836;-37
2022/03/11 11:12:47;;;;;;;22.23;12.20;;;;;;;;;;5077611;27;20277;-38
2022/03/11 11:15:15;;;;;;;20.53;11.97;;;;;;;;;;5076966;27;20193;-37
2022/03/11 11:17:42;;;;;;;14.57;10.40;;;;;;;;;;5078729;27;20166;-37
2022/03/11 11:20:16;;;;;;;18.63;12.03;;;;;;;;;;5076269;27;20167;-37
2022/03/11 11:22:44;;;;;;;14.93;10.67;;;;;;;;;;5076283;27;20243;-37
2022/03/11 11:25:10;;;;;;;19.30;10.43;;;;;;;;;;5071581;27;20943;-37
2022/03/11 11:27:37;;;;;;;17.27;10.63;;;;;;;;;;5079088;27;20194;-37
2022/03/11 11:30:03;;;;;;;15.03;11.00;;;;;;;;;;5080096;27;20705;-37
2022/03/11 11:32:29;;;;;;;16.47;11.27;;;;;;;;;;5074182;27;20228;-37
2022/03/11 11:35:15;;;;;;;14.60;10.10;;;;;;;;;;5072221;27;21272;-37
2022/03/11 11:37:41;;;;;;;331.40;25.30;;;;;;;;;;5073389;27;20175;-38
2022/03/11 11:40:17;;;;;;;16.37;9.87;;;;;;;;;;5075037;27;21097;-37
2022/03/11 11:43:03;;;;;;;16.83;10.13;;;;;;;;;;5070602;27;20170;-37
2022/03/11 11:45:42;;;;;;;19.27;10.70;;;;;;;;;;5072126;27;20178;-37
2022/03/11 11:48:27;;;;;;;17.30;10.77;;;;;;;;;;5072025;27;20451;-37
2022/03/11 11:50:53;;;;;;;14.23;10.07;;;;;;;;;;5074614;27;20178;-37
2022/03/11 11:53:36;;;;;;;16.57;10.20;;;;;;;;;;5066929;27;20219;-36
2022/03/11 11:56:22;;;;;;;15.50;11.00;;;;;;;;;;5071290;27;20612;-37
2022/03/11 11:58:51;;;;;;;16.73;10.00;;;;;;;;;;5070250;27;20572;-37
2022/03/11 12:01:36;;;;;;;16.53;10.50;;;;;;;;;;5074194;27;20542;-37
2022/03/11 12:04:21;;;;;;;19.07;11.27;;;;;;;;;;5072040;27;20842;-37
2022/03/11 12:06:56;;;;;;;15.90;10.30;;;;;;;;;;5070275;27;20204;-37
2022/03/11 12:12:10;;;;;;;14.50;10.47;;;;;;;;;;5066697;27;20414;-37
2022/03/11 12:15:05;;;;;;;15.20;9.97;;;;;;;;;;5071852;27;20178;-37
2022/03/11 12:17:59;;;;;;;17.93;11.07;;;;;;;;;;5068769;27;20288;-36
2022/03/11 12:20:48;;;;;;;18.33;11.00;;;;;;;;;;5072735;27;20167;-37
2022/03/11 12:23:17;;;;;;;14.70;10.70;;;;;;;;;;5086321;27;20178;-36
2022/03/11 12:26:02;;;;;;;15.53;10.47;;;;;;;;;;5073211;27;20174;-36
2022/03/11 12:28:28;;;;;;;22.53;10.73;;;;;;;;;;5087062;27;20569;-36
2022/03/11 12:30:57;;;;;;;17.23;11.47;;;;;;;;;;5072129;27;20487;-35
2022/03/11 12:33:29;;;;;;;17.07;10.67;;;;;;;;;;5076657;27;20308;-35
2022/03/11 12:35:56;;;;;;;17.83;10.47;;;;;;;;;;5074878;27;20499;-36
2022/03/11 12:38:23;;;;;;;14.37;10.97;;;;;;;;;;5068083;27;20270;-36
2022/03/11 12:40:50;;;;;;;17.40;10.73;;;;;;;;;;5071367;27;20174;-35
2022/03/11 12:43:17;;;;;;;14.97;9.77;;;;;;;;;;5077423;27;20775;-36
2022/03/11 12:45:46;;;;;;;16.87;10.40;;;;;;;;;;5071362;27;20970;-36
2022/03/11 12:48:14;;;;;;;18.50;10.70;;;;;;;;;;5072894;27;20179;-36
2022/03/11 12:50:40;;;;;;;18.97;11.90;;;;;;;;;;5077123;27;20721;-36
2022/03/11 12:53:08;;;;;;;17.20;10.87;;;;;;;;;;5075270;27;20384;-36
2022/03/11 12:55:36;;;;;;;19.80;11.33;;;;;;;;;;5075717;27;20367;-37
2022/03/11 12:58:06;;;;;;;16.67;10.67;;;;;;;;;;5073765;27;20258;-35
2022/03/11 13:00:35;;;;;;;15.70;11.13;;;;;;;;;;5072811;27;20181;-36
2022/03/11 13:03:02;;;;;;;15.27;10.17;;;;;;;;;;5073150;27;20644;-36
2022/03/11 13:05:31;;;;;;;16.20;10.47;;;;;;;;;;5075208;27;20261;-36
2022/03/11 13:08:01;;;;;;;17.93;10.57;;;;;;;;;;5074645;27;20686;-36
2022/03/11 13:10:28;;;;;;;15.17;9.73;;;;;;;;;;5072239;27;20251;-36
2022/03/11 13:12:58;;;;;;;15.23;10.27;;;;;;;;;;5072760;27;20290;-40
2022/03/11 13:15:29;;;;;;;17.70;10.10;;;;;;;;;;5074191;27;20545;-36
2022/03/11 13:17:55;;;;;;;15.73;9.60;;;;;;;;;;5079506;27;20744;-36
2022/03/11 13:20:36;;;;;;;13.37;9.50;;;;;;;;;;5072901;27;20259;-36
2022/03/11 13:23:19;;;;;;;15.83;9.90;;;;;;;;;;5074580;27;20651;-36
2022/03/11 13:25:56;;;;;;;19.30;10.07;;;;;;;;;;5073464;27;20238;-36
2022/03/11 13:28:24;;;;;;;17.60;10.50;;;;;;;;;;5075940;27;20852;-36
2022/03/11 13:30:51;;;;;;;17.70;10.57;;;;;;;;;;5072119;27;20482;-36
2022/03/11 13:33:25;;;;;;;16.53;10.67;;;;;;;;;;5073381;27;20201;-35
2022/03/11 13:36:05;;;;;;;15.77;10.10;;;;;;;;;;5074195;27;20170;-36
2022/03/11 13:38:44;;;;;;;25.23;10.63;;;;;;;;;;5073488;27;20415;-35
2022/03/11 13:41:11;;;;;;;18.93;10.70;;;;;;;;;;5071176;27;20174;-35
2022/03/11 13:43:37;;;;;;;13.97;9.33;;;;;;;;;;5071264;27;20206;-36
2022/03/11 13:46:04;;;;;;;15.23;9.87;;;;;;;;;;5074294;27;20694;-35
2022/03/11 13:48:31;;;;;;;18.27;10.77;;;;;;;;;;5073627;27;20178;-36
2022/03/11 13:51:01;;;;;;;20.93;9.57;;;;;;;;;;5071831;27;20612;-36
2022/03/11 13:53:28;;;;;;;16.90;10.90;;;;;;;;;;5053288;28;20800;-36
2022/03/11 13:55:54;;;;;;;14.47;9.40;;;;;;;;;;5074554;27;20705;-36
2022/03/11 13:58:25;;;;;;;22.60;11.17;;;;;;;;;;5071647;27;20798;-36
2022/03/11 14:00:51;;;;;;;15.13;10.70;;;;;;;;;;5069481;27;20268;-35
2022/03/11 14:03:18;;;;;;;17.53;9.83;;;;;;;;;;5071239;27;20241;-36
2022/03/11 14:05:45;;;;;;;25.27;10.73;;;;;;;;;;5074727;28;20705;-36
2022/03/11 14:08:14;;;;;;;15.37;10.27;;;;;;;;;;5072759;27;20173;-35
2022/03/11 14:10:43;;;;;;;18.67;10.40;;;;;;;;;;5071007;27;20177;-35
2022/03/11 14:13:10;;;;;;;15.30;10.23;;;;;;;;;;5070744;27;20185;-36
2022/03/11 14:15:41;;;;;;;16.10;10.10;;;;;;;;;;5053854;28;20205;-36
2022/03/11 14:18:11;;;;;;;19.30;10.50;;;;;;;;;;5068605;27;20582;-35
2022/03/11 14:20:37;;;;;;;17.23;11.10;;;;;;;;;;5073916;28;20924;-36